createdAt,value
2023-05-14T00:00:38.739Z,74.6
2023-05-14T00:05:38.755Z,76.7
2023-05-14T00:10:38.741Z,74.9
2023-05-14T00:15:38.786Z,76.9
2023-05-14T00:20:38.781Z,76.5
2023-05-14T00:25:38.758Z,75.8
2023-05-14T00:30:38.785Z,78.3
2023-05-14T00:35:38.767Z,76.6
2023-05-14T00:45:38.761Z,78.9
2023-05-14T00:50:38.754Z,79.3
2023-05-14T00:55:38.796Z,78.1
2023-05-14T01:00:38.812Z,78.6
2023-05-14T01:10:38.775Z,78.4
2023-05-14T01:20:38.800Z,80.2
2023-05-14T01:25:38.788Z,81.3
2023-05-14T01:30:38.986Z,80.0
2023-05-14T01:35:38.772Z,78.2
2023-05-14T01:40:38.769Z,79.6
2023-05-14T01:45:38.910Z,80.6
2023-05-14T01:50:38.773Z,82.8
2023-05-14T01:55:38.790Z,82.0
2023-05-14T02:00:38.781Z,83.3
2023-05-14T02:05:38.800Z,83.6
2023-05-14T02:15:38.803Z,83.2
2023-05-14T02:20:38.805Z,84.7
2023-05-14T02:25:38.803Z,86.4
2023-05-14T02:30:38.832Z,87.0
2023-05-14T02:35:38.809Z,88.0
2023-05-14T02:40:38.836Z,88.3
2023-05-14T02:45:38.825Z,90.5
2023-05-14T02:50:38.804Z,90.8
2023-05-14T02:55:38.846Z,91.4
2023-05-14T03:05:38.814Z,90.2
2023-05-14T03:10:38.842Z,90.3
2023-05-14T03:15:38.831Z,92.3
2023-05-14T03:25:38.815Z,93.4
2023-05-14T03:35:38.815Z,95.1
2023-05-14T03:40:38.827Z,94.3
2023-05-14T03:45:38.842Z,95.2
2023-05-14T03:50:38.857Z,94.4
2023-05-14T03:55:38.849Z,95.4
2023-05-14T04:05:38.839Z,94.4
2023-05-14T04:10:38.889Z,94.5
2023-05-14T04:15:38.888Z,95.4
2023-05-14T04:20:38.872Z,92.8
2023-05-14T04:25:38.872Z,92.1
2023-05-14T04:30:38.850Z,92.1
2023-05-14T04:40:38.855Z,93.0
2023-05-14T04:45:38.879Z,90.6
2023-05-14T04:50:38.868Z,89.7
2023-05-14T04:55:38.829Z,92.9
2023-05-14T05:00:38.873Z,91.7
2023-05-14T05:05:38.857Z,91.3
2023-05-14T05:10:38.857Z,90.6
2023-05-14T05:15:38.959Z,89.5
2023-05-14T05:20:38.865Z,88.5
2023-05-14T05:25:38.874Z,87.1
2023-05-14T05:30:38.883Z,88.2
2023-05-14T05:35:38.888Z,88.2
2023-05-14T05:45:38.863Z,87.3
2023-05-14T05:50:38.896Z,87.1
2023-05-14T05:55:38.888Z,88.2
2023-05-14T06:00:38.874Z,90.0
2023-05-14T06:05:38.940Z,89.3
2023-05-14T06:10:38.890Z,88.6
2023-05-14T06:15:38.893Z,87.5
2023-05-14T06:20:38.889Z,85.0
2023-05-14T06:30:38.891Z,84.7
2023-05-14T06:35:38.894Z,84.3
2023-05-14T06:40:38.916Z,83.2
2023-05-14T06:45:38.897Z,80.9
2023-05-14T06:50:38.886Z,81.1
2023-05-14T06:55:38.894Z,81.9
2023-05-14T07:00:38.918Z,80.5
2023-05-14T07:05:38.920Z,79.4
2023-05-14T07:10:38.883Z,77.4
2023-05-14T07:15:38.916Z,74.7
2023-05-14T07:20:38.913Z,73.7
2023-05-14T07:30:38.929Z,73.7
2023-05-14T07:35:38.913Z,70.9
2023-05-14T07:40:39.001Z,70.6
2023-05-14T07:45:38.932Z,67.7
2023-05-14T07:50:38.916Z,67.8
2023-05-14T07:55:38.950Z,67.7
2023-05-14T08:00:38.920Z,67.3
2023-05-14T08:05:38.934Z,65.4
2023-05-14T08:10:38.944Z,63.3
2023-05-14T08:15:38.951Z,63.3
2023-05-14T08:20:38.924Z,60.6
2023-05-14T08:25:38.991Z,58.3
2023-05-14T08:30:38.979Z,58.6
2023-05-14T08:35:38.954Z,58.0
2023-05-14T08:40:38.956Z,58.7
2023-05-14T08:45:38.941Z,55.5
2023-05-14T08:50:38.944Z,50.7
2023-05-14T08:55:38.941Z,46.7
2023-05-14T09:00:38.939Z,45.1
2023-05-14T09:05:38.964Z,44.7
2023-05-14T09:10:38.993Z,49.1
2023-05-14T09:15:38.964Z,49.3
2023-05-14T09:20:38.980Z,50.3
2023-05-14T09:30:38.980Z,50.5
2023-05-14T09:35:38.973Z,47.7
2023-05-14T09:40:38.958Z,49.3
2023-05-14T09:45:38.976Z,50.0
2023-05-14T09:55:38.944Z,48.1
2023-05-14T10:00:38.987Z,46.7
2023-05-14T10:05:39.008Z,46.0
2023-05-14T10:10:38.973Z,46.0
2023-05-14T10:15:38.989Z,41.4
2023-05-14T10:20:38.983Z,38.3
2023-05-14T10:25:38.982Z,34.6
2023-05-14T10:30:38.969Z,31.9
2023-05-14T10:35:38.962Z,32.3
2023-05-14T10:40:39.009Z,28.0
2023-05-14T10:50:38.968Z,25.2
2023-05-14T10:55:38.995Z,27.8
2023-05-14T11:00:38.990Z,25.1
2023-05-14T11:05:38.982Z,25.3
2023-05-14T11:10:39.021Z,27.0
2023-05-14T11:15:38.995Z,28.2
2023-05-14T11:20:39.013Z,24.4
2023-05-14T11:25:39.003Z,25.1
2023-05-14T11:30:39.020Z,25.0
2023-05-14T11:35:39.020Z,25.7
2023-05-14T11:40:39.012Z,24.0
2023-05-14T11:45:39.070Z,22.0
2023-05-14T11:50:39.023Z,25.6
2023-05-14T11:55:39.025Z,24.0
2023-05-14T12:00:39.016Z,24.6
2023-05-14T12:05:39.021Z,22.6
2023-05-14T12:10:39.019Z,20.8
2023-05-14T12:15:39.031Z,18.4
2023-05-14T12:20:39.013Z,23.4
2023-05-14T12:25:39.029Z,20.2
2023-05-14T12:30:39.038Z,26.3
2023-05-14T12:35:39.049Z,22.1
2023-05-14T12:40:39.022Z,20.9
2023-05-14T12:45:39.027Z,20.1
2023-05-14T12:50:39.049Z,19.2
2023-05-14T12:55:39.032Z,20.8
2023-05-14T13:00:39.114Z,19.0
2023-05-14T13:10:39.034Z,19.4
2023-05-14T13:15:39.067Z,18.5
2023-05-14T13:20:39.561Z,23.0
2023-05-14T13:25:39.053Z,23.5
2023-05-14T13:30:39.111Z,19.8
2023-05-14T13:35:39.046Z,21.0
2023-05-14T13:40:39.071Z,21.2
2023-05-14T13:45:39.068Z,19.8
2023-05-14T13:50:39.068Z,20.7
2023-05-14T13:55:39.066Z,23.7
2023-05-14T14:00:39.075Z,21.8
2023-05-14T14:10:39.072Z,25.4
2023-05-14T14:15:39.064Z,26.1
2023-05-14T14:20:39.082Z,23.3
2023-05-14T14:25:39.077Z,23.6
2023-05-14T14:30:39.084Z,26.2
2023-05-14T14:35:39.101Z,25.3
2023-05-14T14:40:39.093Z,25.3
2023-05-14T14:45:39.102Z,27.0
2023-05-14T14:50:39.086Z,24.3
2023-05-14T14:55:39.098Z,23.6
2023-05-14T15:00:39.085Z,23.7
2023-05-14T15:05:39.117Z,28.0
2023-05-14T15:10:39.110Z,31.4
2023-05-14T15:15:39.106Z,34.7
2023-05-14T15:20:39.111Z,35.7
2023-05-14T15:25:40.176Z,37.9
2023-05-14T15:30:39.132Z,37.9
2023-05-14T15:35:39.105Z,38.4
2023-05-14T15:40:39.118Z,39.3
2023-05-14T15:45:39.120Z,39.9
2023-05-14T15:50:40.686Z,39.8
2023-05-14T15:55:39.124Z,39.8
2023-05-14T16:00:39.149Z,38.7
2023-05-14T16:05:39.119Z,38.0
2023-05-14T16:10:39.142Z,34.2
2023-05-14T16:20:39.160Z,33.9
2023-05-14T16:25:39.122Z,33.9
2023-05-14T16:35:39.139Z,35.0
2023-05-14T16:40:39.139Z,37.3
2023-05-14T16:45:39.351Z,38.2
2023-05-14T16:50:39.135Z,38.4
2023-05-14T16:55:39.123Z,39.0
2023-05-14T17:00:39.149Z,42.2
2023-05-14T17:05:39.270Z,40.1
2023-05-14T17:10:39.162Z,44.4
2023-05-14T17:15:39.158Z,42.3
2023-05-14T17:20:39.171Z,47.2
2023-05-14T17:25:39.167Z,44.2
2023-05-14T17:30:39.137Z,44.6
2023-05-14T17:40:39.147Z,42.9
2023-05-14T17:45:52.514Z,40.8
2023-05-14T17:50:39.184Z,43.2
2023-05-14T17:55:39.150Z,45.8
2023-05-14T18:05:39.182Z,43.4
2023-05-14T18:10:39.188Z,47.0
2023-05-14T18:15:39.187Z,51.9
2023-05-14T18:20:39.196Z,55.4
2023-05-14T18:30:39.227Z,61.0
2023-05-14T18:35:39.212Z,63.9
2023-05-14T18:40:39.214Z,67.6
2023-05-14T18:45:39.207Z,67.6
2023-05-14T18:50:39.477Z,67.7
2023-05-14T18:55:39.212Z,70.0
2023-05-14T19:00:39.198Z,70.7
2023-05-14T19:05:39.289Z,72.1
2023-05-14T19:10:39.212Z,72.1
2023-05-14T19:15:39.326Z,76.2
2023-05-14T19:20:39.228Z,75.5
2023-05-14T19:25:39.208Z,78.0
2023-05-14T19:30:39.286Z,79.3
2023-05-14T19:35:39.207Z,79.3
2023-05-14T19:40:39.245Z,80.3
2023-05-14T19:45:39.412Z,81.4
2023-05-14T19:50:39.221Z,79.6
2023-05-14T19:55:40.377Z,77.9
2023-05-14T20:00:39.252Z,77.9
2023-05-14T20:05:39.241Z,78.4
2023-05-14T20:10:39.264Z,79.7
2023-05-14T20:15:39.249Z,78.9
2023-05-14T20:20:39.251Z,79.5
2023-05-14T20:25:39.222Z,79.5
2023-05-14T20:30:39.274Z,80.8
2023-05-14T20:40:39.234Z,80.9
2023-05-14T20:50:39.255Z,78.8
2023-05-14T20:55:39.240Z,78.8
2023-05-14T21:00:39.263Z,79.9
2023-05-14T21:05:39.248Z,80.7
2023-05-14T21:10:39.268Z,82.1
2023-05-14T21:15:39.257Z,81.4
2023-05-14T21:20:39.248Z,84.4
2023-05-14T21:25:39.280Z,83.4
2023-05-14T21:30:39.258Z,84.8
2023-05-14T21:35:39.278Z,84.8
2023-05-14T21:40:39.261Z,82.9
2023-05-14T21:45:39.283Z,84.8
2023-05-14T21:50:39.288Z,85.0
2023-05-14T21:55:39.282Z,86.5
2023-05-14T22:00:39.289Z,87.0
2023-05-14T22:05:39.265Z,87.8
2023-05-14T22:10:39.300Z,87.5
2023-05-14T22:15:39.301Z,88.3
2023-05-14T22:20:39.269Z,89.0
2023-05-14T22:25:39.290Z,88.5
2023-05-14T22:30:39.301Z,87.9
2023-05-14T22:35:39.312Z,90.9
2023-05-14T22:40:39.277Z,91.3
2023-05-14T22:55:39.288Z,91.0
2023-05-14T23:00:39.319Z,93.7
2023-05-14T23:05:39.317Z,94.5
2023-05-14T23:15:39.792Z,96.4
2023-05-14T23:20:39.298Z,96.4
2023-05-14T23:25:39.311Z,96.2
2023-05-14T23:35:39.319Z,92.8
2023-05-14T23:45:39.341Z,96.6
2023-05-14T23:50:39.326Z,96.6
2023-05-14T23:55:39.325Z,96.0
